Rushmore, Minnesota
Current Conditions -  °F | °C
As of 12:15 AM on Wednesday 22 Oct 2014 (Local Time) from KOTG Reporting Station
Clear Clear  
Wind Chill: 52°   Ceiling: Unl
Heat Index: 52°   Visibility: 10mi
Dew Point: 39°   Wind: 14mph
Humidity: 62%   Direction: 160°SSE
Pressure: 30.09"   Gusts: 21mph
Location:  43.62°N, 95.8°W
Report Text: KOTG 220515Z AUTO 16012G18KT 10SM CLR 11/04 A3009 RMK AO1
Loading
Personal Weather Stations






























Interactive Weather Map
Tropical Storm Tracking
New forecast layout! Learn more

10-Day Weather Forecast

Advertisements
Track Severe Weather on mobile